Terminal Aerodrome Forecast
Issued by NWS

Home | Current Version | Previous Version | Text Only | Print | Product List | Glossary On
Versions: 1 2 3 4 5 6 7 8 9 10 11 12 13 14 15 16 17 18 19 20 21 22 23 24 25 26 27 28
000
FTUS45 KLKN 030248 AAA
TAFELY
TAF AMD
KELY 030248Z 0303/0324 35008KT P6SM VCSH BKN120
     FM030600 18008KT P6SM BKN120
     FM032000 23007KT P6SM VCTS BKN120CB=

USA.gov is the U.S. government's official web portal to all federal, state and local government web resources and services.